Time;durP1;ratioP1;P1;durP2;ratioP2;P2;SDS_P1;SDS_P2;PMS_P1;PMS_P2;Temp;Humidity;BMP_temperature;BMP_pressure;BME280_temperature;BME280_humidity;BME280_pressure;Samples;Min_cycle;Max_cycle;Signal;HPM_P1;HPM_P2
2022/05/09 00:00:18;;;;;;;31.73;13.65;;;;;;;;;;4984464;28;20034;-68
2022/05/09 00:02:47;;;;;;;42.55;14.43;;;;;;;;;;4972792;28;20035;-68
2022/05/09 00:05:16;;;;;;;22.92;12.93;;;;;;;;;;4987779;28;20034;-68
2022/05/09 00:07:42;;;;;;;42.42;15.52;;;;;;;;;;4979931;28;20031;-68
2022/05/09 00:10:09;;;;;;;38.70;13.05;;;;;;;;;;4980334;28;20086;-68
2022/05/09 00:12:35;;;;;;;21.80;12.27;;;;;;;;;;4986805;28;20475;-68
2022/05/09 00:15:02;;;;;;;23.13;12.50;;;;;;;;;;4975203;28;20081;-68
2022/05/09 00:17:28;;;;;;;20.58;11.93;;;;;;;;;;4975999;28;20027;-68
2022/05/09 00:19:54;;;;;;;24.13;12.02;;;;;;;;;;4980462;28;20038;-68
2022/05/09 00:22:22;;;;;;;23.13;12.00;;;;;;;;;;4978956;28;20023;-68
2022/05/09 00:24:48;;;;;;;18.70;11.43;;;;;;;;;;4987938;28;20026;-68
2022/05/09 00:27:15;;;;;;;19.15;11.32;;;;;;;;;;4975500;28;20081;-68
2022/05/09 00:29:41;;;;;;;24.27;13.45;;;;;;;;;;4987037;28;20034;-68
2022/05/09 00:32:07;;;;;;;19.02;11.02;;;;;;;;;;4990877;28;20038;-68
2022/05/09 00:34:37;;;;;;;25.05;11.77;;;;;;;;;;4977052;28;20023;-68
2022/05/09 00:37:03;;;;;;;17.50;11.48;;;;;;;;;;4987566;28;20076;-68
2022/05/09 00:39:30;;;;;;;20.05;11.38;;;;;;;;;;4977194;28;20023;-68
2022/05/09 00:42:06;;;;;;;18.10;11.40;;;;;;;;;;4982215;28;20031;-68
2022/05/09 00:44:32;;;;;;;19.58;11.85;;;;;;;;;;4985657;28;20041;-68
2022/05/09 00:46:58;;;;;;;17.30;11.23;;;;;;;;;;4974470;28;20504;-68
2022/05/09 00:49:27;;;;;;;17.77;11.60;;;;;;;;;;4986693;28;20077;-68
2022/05/09 00:51:53;;;;;;;20.02;11.82;;;;;;;;;;4979901;28;20164;-68
2022/05/09 00:54:23;;;;;;;20.52;12.15;;;;;;;;;;4989473;28;20435;-68
2022/05/09 00:56:55;;;;;;;21.40;12.00;;;;;;;;;;4990857;28;20042;-68
2022/05/09 00:59:21;;;;;;;23.10;12.93;;;;;;;;;;4975459;28;20160;-68
2022/05/09 01:01:48;;;;;;;32.08;13.05;;;;;;;;;;4986573;28;20121;-68
2022/05/09 01:04:17;;;;;;;33.75;12.77;;;;;;;;;;4990168;28;20026;-68
2022/05/09 01:06:43;;;;;;;31.52;12.88;;;;;;;;;;4990317;28;20107;-68
2022/05/09 01:09:12;;;;;;;30.75;14.20;;;;;;;;;;4973652;28;20130;-68
2022/05/09 01:11:42;;;;;;;76.22;15.05;;;;;;;;;;4990510;28;20472;-68
2022/05/09 01:14:10;;;;;;;76.60;16.00;;;;;;;;;;4982226;28;20042;-68
2022/05/09 01:16:38;;;;;;;63.55;16.88;;;;;;;;;;4976658;28;20027;-68
2022/05/09 01:19:10;;;;;;;74.93;17.33;;;;;;;;;;4981196;28;20046;-68
2022/05/09 01:21:37;;;;;;;72.60;16.80;;;;;;;;;;4985163;28;20450;-68
2022/05/09 01:24:05;;;;;;;50.83;16.08;;;;;;;;;;4970906;28;20023;-68
2022/05/09 01:26:31;;;;;;;68.53;15.48;;;;;;;;;;4984053;28;20036;-68
2022/05/09 01:29:01;;;;;;;56.90;15.20;;;;;;;;;;4974128;28;20026;-68
2022/05/09 01:31:27;;;;;;;56.63;14.77;;;;;;;;;;4986074;28;20033;-68
2022/05/09 01:33:53;;;;;;;67.93;15.52;;;;;;;;;;4978922;28;20058;-68
2022/05/09 01:36:30;;;;;;;62.30;15.30;;;;;;;;;;4990003;28;20035;-68
2022/05/09 01:39:06;;;;;;;43.40;13.32;;;;;;;;;;4974352;28;20056;-68
2022/05/09 01:41:37;;;;;;;37.00;14.18;;;;;;;;;;4975787;28;20030;-68
2022/05/09 01:44:04;;;;;;;50.78;14.05;;;;;;;;;;4981267;28;20034;-68
2022/05/09 01:46:31;;;;;;;36.90;14.43;;;;;;;;;;4983452;28;20133;-68
2022/05/09 01:51:43;;;;;;;34.40;14.32;;;;;;;;;;4971364;28;20046;-68
2022/05/09 01:54:10;;;;;;;50.53;17.38;;;;;;;;;;4979932;28;20561;-68
2022/05/09 01:56:38;;;;;;;55.67;14.80;;;;;;;;;;4977216;28;20081;-68
2022/05/09 01:59:06;;;;;;;73.65;18.48;;;;;;;;;;4986384;28;20458;-68
2022/05/09 02:01:36;;;;;;;57.95;16.95;;;;;;;;;;4974781;28;20038;-68
2022/05/09 02:04:03;;;;;;;59.50;17.52;;;;;;;;;;4981411;28;20041;-68
2022/05/09 02:06:29;;;;;;;66.60;17.38;;;;;;;;;;4982517;28;20053;-68
2022/05/09 02:08:57;;;;;;;66.80;18.58;;;;;;;;;;4974564;28;20054;-68
2022/05/09 02:11:23;;;;;;;73.20;18.35;;;;;;;;;;4986240;28;20023;-68
2022/05/09 02:13:49;;;;;;;97.13;17.85;;;;;;;;;;4976329;28;20033;-68
2022/05/09 02:16:15;;;;;;;94.10;18.02;;;;;;;;;;4979702;28;20037;-68
2022/05/09 02:18:43;;;;;;;126.72;17.15;;;;;;;;;;4970700;28;20133;-68
2022/05/09 02:21:09;;;;;;;106.55;18.52;;;;;;;;;;4986087;28;20042;-68
2022/05/09 02:23:35;;;;;;;104.97;17.15;;;;;;;;;;4974967;28;20018;-68
2022/05/09 02:26:02;;;;;;;57.63;16.00;;;;;;;;;;4981543;28;20039;-68
2022/05/09 02:28:28;;;;;;;90.68;17.38;;;;;;;;;;4981424;28;20491;-68
2022/05/09 02:30:55;;;;;;;62.88;15.63;;;;;;;;;;4985765;28;20422;-68
2022/05/09 02:33:21;;;;;;;77.07;16.33;;;;;;;;;;4986405;28;20042;-68
2022/05/09 02:35:48;;;;;;;75.22;16.65;;;;;;;;;;4976098;28;20052;-68
2022/05/09 02:38:14;;;;;;;59.67;16.52;;;;;;;;;;4979815;28;20080;-68
2022/05/09 02:40:40;;;;;;;74.18;16.27;;;;;;;;;;4972490;28;20315;-68
2022/05/09 02:43:06;;;;;;;79.93;17.33;;;;;;;;;;4985609;28;20430;-68
2022/05/09 02:45:33;;;;;;;89.40;16.88;;;;;;;;;;4973773;28;20029;-68
2022/05/09 02:47:59;;;;;;;60.47;16.38;;;;;;;;;;4981968;28;20507;-68
2022/05/09 02:50:26;;;;;;;84.32;16.58;;;;;;;;;;4973058;28;20431;-68
2022/05/09 02:52:52;;;;;;;85.32;16.67;;;;;;;;;;4984259;28;20057;-68
2022/05/09 02:55:19;;;;;;;85.22;15.07;;;;;;;;;;4972698;28;20039;-68
2022/05/09 02:57:45;;;;;;;102.30;16.63;;;;;;;;;;4983781;28;20040;-68
2022/05/09 03:00:14;;;;;;;61.50;15.27;;;;;;;;;;4978060;28;20145;-68
2022/05/09 03:02:40;;;;;;;36.15;14.55;;;;;;;;;;4976826;28;20110;-68
2022/05/09 03:05:07;;;;;;;58.88;15.98;;;;;;;;;;4985368;28;20018;-68
2022/05/09 03:07:34;;;;;;;42.30;13.63;;;;;;;;;;4969904;28;20043;-68
2022/05/09 03:10:02;;;;;;;42.28;14.10;;;;;;;;;;4977633;28;20054;-68
2022/05/09 03:12:28;;;;;;;44.42;14.02;;;;;;;;;;4977769;28;20023;-68
2022/05/09 03:14:54;;;;;;;43.03;13.20;;;;;;;;;;4983929;28;20089;-68
2022/05/09 03:17:21;;;;;;;38.35;14.13;;;;;;;;;;4970976;28;20041;-68
2022/05/09 03:19:47;;;;;;;47.47;14.80;;;;;;;;;;4974798;28;20021;-68
2022/05/09 03:22:13;;;;;;;35.45;13.27;;;;;;;;;;4980025;28;20125;-68
2022/05/09 03:24:39;;;;;;;24.05;12.50;;;;;;;;;;4981537;28;20022;-68
2022/05/09 03:27:06;;;;;;;36.47;13.38;;;;;;;;;;4973126;28;20023;-68
2022/05/09 03:29:32;;;;;;;33.70;13.57;;;;;;;;;;4985027;28;20117;-68
2022/05/09 03:31:59;;;;;;;27.55;12.55;;;;;;;;;;4975844;28;20026;-68
2022/05/09 03:34:25;;;;;;;42.97;13.63;;;;;;;;;;4978634;28;20019;-68
2022/05/09 03:36:52;;;;;;;40.88;12.18;;;;;;;;;;4982807;28;20392;-68
2022/05/09 03:39:18;;;;;;;35.03;13.18;;;;;;;;;;4972154;28;20066;-68
2022/05/09 03:41:46;;;;;;;31.90;13.13;;;;;;;;;;4983912;28;20042;-68
2022/05/09 03:44:12;;;;;;;23.00;12.45;;;;;;;;;;4977274;28;20034;-68
2022/05/09 03:46:38;;;;;;;47.90;14.05;;;;;;;;;;4977072;28;20058;-68
2022/05/09 03:49:05;;;;;;;21.48;12.65;;;;;;;;;;4983967;28;20105;-68
2022/05/09 03:51:31;;;;;;;58.17;13.40;;;;;;;;;;4972125;28;20502;-68
2022/05/09 03:53:57;;;;;;;38.38;13.48;;;;;;;;;;4982729;28;20023;-68
2022/05/09 03:56:23;;;;;;;32.95;13.73;;;;;;;;;;4970171;28;20027;-68
2022/05/09 03:58:49;;;;;;;31.23;12.57;;;;;;;;;;4981937;28;20030;-68
2022/05/09 04:01:15;;;;;;;31.73;13.30;;;;;;;;;;4971886;28;20042;-68
2022/05/09 04:03:41;;;;;;;36.65;13.30;;;;;;;;;;4984969;28;20745;-68
2022/05/09 04:06:08;;;;;;;28.17;13.52;;;;;;;;;;4976043;28;20570;-68
2022/05/09 04:08:34;;;;;;;21.17;12.25;;;;;;;;;;4977418;28;20023;-68
2022/05/09 04:11:00;;;;;;;18.13;10.93;;;;;;;;;;4984703;28;20042;-68
2022/05/09 04:13:27;;;;;;;29.67;13.25;;;;;;;;;;4971708;28;20520;-68
2022/05/09 04:18:39;;;;;;;19.02;11.93;;;;;;;;;;4968960;28;20042;-68
2022/05/09 04:21:06;;;;;;;19.02;12.38;;;;;;;;;;4983219;28;20029;-68
2022/05/09 04:23:33;;;;;;;18.75;12.23;;;;;;;;;;4971842;28;20073;-68
2022/05/09 04:26:00;;;;;;;17.90;11.18;;;;;;;;;;4982139;28;20026;-68
2022/05/09 04:28:26;;;;;;;15.98;10.77;;;;;;;;;;4971009;28;20026;-68
2022/05/09 04:30:56;;;;;;;17.25;11.10;;;;;;;;;;4981252;28;20034;-68
2022/05/09 04:33:22;;;;;;;16.17;11.18;;;;;;;;;;4979810;28;20076;-68
2022/05/09 04:35:49;;;;;;;16.90;11.05;;;;;;;;;;4984165;28;20023;-68
2022/05/09 04:38:22;;;;;;;16.52;10.43;;;;;;;;;;4979026;28;20038;-68
2022/05/09 04:40:51;;;;;;;;;;;;;;;;;;4979485;28;20397;-68
2022/05/09 04:43:19;;;;;;;16.15;11.13;;;;;;;;;;4987425;28;19924;-68
2022/05/09 04:45:45;;;;;;;14.48;9.75;;;;;;;;;;4987638;28;20166;-68
2022/05/09 04:48:11;;;;;;;16.00;10.65;;;;;;;;;;4978537;28;20021;-68
2022/05/09 04:50:37;;;;;;;14.80;9.63;;;;;;;;;;4980422;28;20385;-68
2022/05/09 04:53:03;;;;;;;15.95;9.80;;;;;;;;;;4970898;28;20451;-68
2022/05/09 04:55:30;;;;;;;14.70;10.43;;;;;;;;;;4972762;28;20039;-68
2022/05/09 04:57:57;;;;;;;15.00;10.55;;;;;;;;;;4986400;28;20041;-68
2022/05/09 05:00:25;;;;;;;19.17;10.25;;;;;;;;;;4979692;28;20035;-68
2022/05/09 05:02:51;;;;;;;15.70;10.55;;;;;;;;;;4978812;28;20019;-68
2022/05/09 05:05:17;;;;;;;16.25;10.73;;;;;;;;;;4986987;28;20057;-68
2022/05/09 05:07:43;;;;;;;15.48;10.27;;;;;;;;;;4974414;28;20030;-68
2022/05/09 05:10:11;;;;;;;15.43;10.38;;;;;;;;;;4989821;28;20088;-68
2022/05/09 05:12:37;;;;;;;16.60;10.13;;;;;;;;;;4980848;28;20392;-68
2022/05/09 05:15:03;;;;;;;13.27;9.65;;;;;;;;;;4984672;28;20077;-68
2022/05/09 05:17:30;;;;;;;14.90;9.95;;;;;;;;;;4973655;28;20039;-68
2022/05/09 05:19:56;;;;;;;14.63;9.68;;;;;;;;;;4975512;28;20068;-68
2022/05/09 05:22:22;;;;;;;15.13;9.73;;;;;;;;;;4982955;28;20087;-68
2022/05/09 05:24:53;;;;;;;14.73;9.10;;;;;;;;;;4982646;28;20037;-68
2022/05/09 05:27:21;;;;;;;13.52;9.43;;;;;;;;;;4975233;28;20569;-68
2022/05/09 05:29:53;;;;;;;18.27;9.57;;;;;;;;;;4979596;28;20477;-68
2022/05/09 05:32:21;;;;;;;15.15;9.48;;;;;;;;;;4977378;28;20022;-68
2022/05/09 05:34:47;;;;;;;16.42;9.90;;;;;;;;;;4980544;28;20022;-69
2022/05/09 05:37:13;;;;;;;14.95;9.90;;;;;;;;;;4994637;28;20126;-69
2022/05/09 05:39:41;;;;;;;14.82;10.00;;;;;;;;;;4973294;28;20081;-68
2022/05/09 05:42:07;;;;;;;16.70;10.95;;;;;;;;;;4979946;28;20060;-68
2022/05/09 05:44:34;;;;;;;16.02;10.43;;;;;;;;;;4973638;28;20030;-68
2022/05/09 05:47:04;;;;;;;18.08;9.90;;;;;;;;;;4975374;28;20370;-68
2022/05/09 05:49:33;;;;;;;14.60;9.63;;;;;;;;;;4974349;28;20076;-68
2022/05/09 05:52:02;;;;;;;16.27;8.93;;;;;;;;;;4999327;28;20333;-68
2022/05/09 05:54:29;;;;;;;15.68;10.80;;;;;;;;;;4976992;28;20031;-68
2022/05/09 05:56:56;;;;;;;17.67;9.23;;;;;;;;;;4978609;28;20030;-68
2022/05/09 05:59:22;;;;;;;15.15;10.65;;;;;;;;;;4982051;28;20034;-68
2022/05/09 06:01:51;;;;;;;16.48;10.18;;;;;;;;;;4982161;28;20117;-68
2022/05/09 06:04:18;;;;;;;16.60;10.52;;;;;;;;;;4983578;28;20041;-68
2022/05/09 06:06:44;;;;;;;15.23;10.75;;;;;;;;;;4973975;28;20049;-68
2022/05/09 06:09:12;;;;;;;16.63;10.05;;;;;;;;;;4985860;28;20046;-68
2022/05/09 06:11:40;;;;;;;16.73;10.20;;;;;;;;;;4979842;28;20446;-69
2022/05/09 06:14:07;;;;;;;17.25;11.15;;;;;;;;;;4977999;28;20030;-69
2022/05/09 06:16:33;;;;;;;19.13;12.20;;;;;;;;;;4985039;28;20023;-69
2022/05/09 06:19:00;;;;;;;18.90;11.05;;;;;;;;;;4974405;28;20087;-69
2022/05/09 06:21:26;;;;;;;19.85;11.52;;;;;;;;;;4980341;28;20162;-69
2022/05/09 06:23:52;;;;;;;19.33;11.60;;;;;;;;;;4975329;28;20031;-69
2022/05/09 06:26:20;;;;;;;20.92;11.50;;;;;;;;;;4985126;28;20387;-69
2022/05/09 06:28:47;;;;;;;23.08;11.82;;;;;;;;;;4973672;28;20392;-73
2022/05/09 06:31:13;;;;;;;21.05;12.85;;;;;;;;;;4977821;28;20665;-69
2022/05/09 06:33:39;;;;;;;21.40;12.05;;;;;;;;;;4980152;28;20525;-69
2022/05/09 06:36:06;;;;;;;23.88;12.75;;;;;;;;;;4982476;28;20058;-69
2022/05/09 06:38:33;;;;;;;23.27;12.60;;;;;;;;;;4973398;28;20106;-68
2022/05/09 06:41:01;;;;;;;23.17;12.85;;;;;;;;;;4975410;28;20039;-68
2022/05/09 06:43:28;;;;;;;23.73;12.82;;;;;;;;;;4971654;28;20113;-68
2022/05/09 06:45:54;;;;;;;25.40;13.88;;;;;;;;;;4971087;28;20435;-68
2022/05/09 06:48:21;;;;;;;26.42;16.05;;;;;;;;;;4970823;28;20507;-68
2022/05/09 06:50:47;;;;;;;22.63;12.48;;;;;;;;;;4970423;28;20443;-68
2022/05/09 06:53:13;;;;;;;21.30;13.60;;;;;;;;;;4971232;28;20451;-68
2022/05/09 06:55:39;;;;;;;27.10;14.13;;;;;;;;;;4971039;28;20069;-68
2022/05/09 06:58:09;;;;;;;23.40;12.63;;;;;;;;;;4977665;28;20377;-68
2022/05/09 07:00:35;;;;;;;27.17;13.07;;;;;;;;;;4982359;28;20035;-68
2022/05/09 07:03:01;;;;;;;24.52;12.90;;;;;;;;;;4982746;28;20042;-68
2022/05/09 07:05:28;;;;;;;28.63;13.85;;;;;;;;;;4974514;28;20106;-68
2022/05/09 07:07:54;;;;;;;23.63;13.77;;;;;;;;;;4973643;28;20109;-68
2022/05/09 07:10:20;;;;;;;25.30;13.40;;;;;;;;;;4990375;28;20055;-68
2022/05/09 07:12:46;;;;;;;27.00;13.88;;;;;;;;;;4990280;28;20096;-68
2022/05/09 07:15:14;;;;;;;24.25;13.98;;;;;;;;;;4990688;28;20030;-68
2022/05/09 07:17:40;;;;;;;24.50;13.75;;;;;;;;;;4990380;28;20042;-68
2022/05/09 07:20:07;;;;;;;28.10;13.90;;;;;;;;;;4974321;28;20037;-69
2022/05/09 07:22:33;;;;;;;21.08;13.13;;;;;;;;;;4971287;28;20558;-68
2022/05/09 07:24:59;;;;;;;22.17;13.05;;;;;;;;;;4970967;28;20023;-68
2022/05/09 07:27:25;;;;;;;27.77;14.32;;;;;;;;;;4989710;28;20034;-68
2022/05/09 07:29:51;;;;;;;22.35;13.52;;;;;;;;;;4970856;28;20033;-68
2022/05/09 07:32:17;;;;;;;27.67;14.32;;;;;;;;;;4973597;28;20420;-68
2022/05/09 07:34:48;;;;;;;25.85;14.55;;;;;;;;;;4989986;28;20027;-68
2022/05/09 07:37:15;;;;;;;27.85;13.65;;;;;;;;;;4990576;28;20045;-68
2022/05/09 07:39:41;;;;;;;24.80;13.15;;;;;;;;;;4988714;28;20081;-69
2022/05/09 07:42:08;;;;;;;29.10;13.38;;;;;;;;;;4989934;28;20030;-67
2022/05/09 07:44:34;;;;;;;31.17;13.75;;;;;;;;;;4990263;28;20030;-67
2022/05/09 07:47:00;;;;;;;23.60;12.93;;;;;;;;;;4980102;28;20371;-67
2022/05/09 07:49:26;;;;;;;19.83;12.13;;;;;;;;;;4980259;28;20030;-66
2022/05/09 07:51:52;;;;;;;20.83;12.27;;;;;;;;;;4975454;28;20504;-67
2022/05/09 07:54:18;;;;;;;24.02;13.25;;;;;;;;;;4975582;28;20057;-67
2022/05/09 07:56:44;;;;;;;23.80;12.38;;;;;;;;;;4970653;28;20463;-67
2022/05/09 07:59:11;;;;;;;23.52;12.02;;;;;;;;;;4975521;28;20031;-67
2022/05/09 08:01:39;;;;;;;21.73;12.30;;;;;;;;;;4969865;28;20038;-67
2022/05/09 08:04:05;;;;;;;19.70;11.38;;;;;;;;;;4978091;28;20368;-67
2022/05/09 08:06:31;;;;;;;20.73;11.88;;;;;;;;;;4983510;28;20519;-67
2022/05/09 08:08:58;;;;;;;19.10;10.98;;;;;;;;;;4978397;28;20114;-66
2022/05/09 08:11:25;;;;;;;24.45;12.82;;;;;;;;;;4982207;28;20483;-67
2022/05/09 08:13:51;;;;;;;20.77;11.55;;;;;;;;;;4974798;28;20046;-66
2022/05/09 08:16:19;;;;;;;20.63;11.68;;;;;;;;;;4977989;28;20072;-65
2022/05/09 08:18:45;;;;;;;22.42;11.25;;;;;;;;;;4983461;28;20029;-66
2022/05/09 08:21:13;;;;;;;21.27;11.52;;;;;;;;;;4981382;28;20083;-66
2022/05/09 08:23:39;;;;;;;16.17;9.90;;;;;;;;;;4986385;28;20027;-66
2022/05/09 08:26:05;;;;;;;19.98;10.30;;;;;;;;;;4979452;28;20062;-66
2022/05/09 08:28:32;;;;;;;16.55;10.20;;;;;;;;;;4980575;28;20011;-66
2022/05/09 08:30:58;;;;;;;14.43;9.32;;;;;;;;;;4982550;28;20042;-66
2022/05/09 08:33:29;;;;;;;15.27;9.43;;;;;;;;;;4983560;28;20075;-66
2022/05/09 08:35:56;;;;;;;19.08;10.30;;;;;;;;;;4976056;28;20672;-66
2022/05/09 08:38:22;;;;;;;17.50;9.65;;;;;;;;;;4982221;28;20027;-66
2022/05/09 08:41:08;;;;;;;20.17;11.00;;;;;;;;;;4979741;28;20133;-66
2022/05/09 08:43:52;;;;;;;18.75;9.73;;;;;;;;;;4983127;28;20054;-66
2022/05/09 08:46:21;;;;;;;13.88;9.77;;;;;;;;;;4980177;28;20788;-66
2022/05/09 08:48:55;;;;;;;18.52;9.15;;;;;;;;;;4979127;28;20026;-66
2022/05/09 08:51:36;;;;;;;14.82;8.75;;;;;;;;;;4978416;28;20033;-66
2022/05/09 08:54:05;;;;;;;15.02;8.07;;;;;;;;;;4982445;28;20019;-66
2022/05/09 08:56:32;;;;;;;17.95;8.85;;;;;;;;;;4980855;28;20038;-66
2022/05/09 08:59:01;;;;;;;17.23;9.52;;;;;;;;;;4973092;28;20038;-66
2022/05/09 09:01:45;;;;;;;15.35;8.80;;;;;;;;;;5016281;28;20057;-66
2022/05/09 09:04:16;;;;;;;17.70;8.65;;;;;;;;;;4984930;28;20023;-66
2022/05/09 09:06:42;;;;;;;17.90;8.82;;;;;;;;;;4978011;28;20038;-67
2022/05/09 09:09:27;;;;;;;12.68;6.80;;;;;;;;;;4981436;28;20054;-67
2022/05/09 09:11:56;;;;;;;12.82;8.32;;;;;;;;;;4984731;28;20034;-67
2022/05/09 09:14:27;;;;;;;13.57;6.55;;;;;;;;;;4975821;28;20101;-66
2022/05/09 09:17:06;;;;;;;14.32;8.07;;;;;;;;;;4981901;28;20484;-67
2022/05/09 09:19:52;;;;;;;14.02;7.68;;;;;;;;;;4982620;28;20043;-67
2022/05/09 09:22:25;;;;;;;15.40;6.85;;;;;;;;;;4979017;28;20113;-67
2022/05/09 09:24:54;;;;;;;12.15;6.50;;;;;;;;;;4979353;28;20061;-67
2022/05/09 09:27:40;;;;;;;10.27;6.90;;;;;;;;;;4973802;28;20035;-67
2022/05/09 09:30:11;;;;;;;14.68;6.93;;;;;;;;;;4981033;28;20049;-67
2022/05/09 09:32:41;;;;;;;14.10;6.13;;;;;;;;;;4976276;28;20038;-66
2022/05/09 09:35:10;;;;;;;9.27;5.95;;;;;;;;;;4979930;28;20469;-66
2022/05/09 09:37:39;;;;;;;12.82;5.35;;;;;;;;;;4975501;28;20092;-67
2022/05/09 09:40:06;;;;;;;8.23;5.18;;;;;;;;;;4982051;28;20030;-66
2022/05/09 09:42:33;;;;;;;8.82;4.82;;;;;;;;;;4986236;28;20377;-67
2022/05/09 09:45:03;;;;;;;8.93;5.07;;;;;;;;;;4980413;28;20121;-66
2022/05/09 09:47:30;;;;;;;13.32;5.78;;;;;;;;;;4979885;28;20484;-66
2022/05/09 09:50:14;;;;;;;14.07;5.28;;;;;;;;;;4978437;28;20109;-66
2022/05/09 09:52:48;;;;;;;10.02;5.00;;;;;;;;;;4977590;28;20042;-66
2022/05/09 09:55:34;;;;;;;12.07;5.45;;;;;;;;;;4986916;28;20026;-66
2022/05/09 09:58:21;;;;;;;8.45;5.13;;;;;;;;;;4986686;28;20041;-66
2022/05/09 10:00:49;;;;;;;9.43;5.20;;;;;;;;;;4978193;28;20039;-66
2022/05/09 10:03:22;;;;;;;11.65;4.95;;;;;;;;;;4982305;28;20037;-66
2022/05/09 10:05:50;;;;;;;8.80;4.82;;;;;;;;;;4980064;28;20075;-67
2022/05/09 10:08:36;;;;;;;11.82;4.50;;;;;;;;;;4978384;28;20031;-67
2022/05/09 10:11:07;;;;;;;7.95;4.57;;;;;;;;;;4986598;28;20035;-66
2022/05/09 10:13:34;;;;;;;11.15;4.30;;;;;;;;;;4981896;28;20038;-67
2022/05/09 10:16:03;;;;;;;10.02;4.35;;;;;;;;;;4973888;28;20148;-67
2022/05/09 10:18:31;;;;;;;7.63;4.45;;;;;;;;;;4978101;28;20509;-67
2022/05/09 10:20:59;;;;;;;7.68;4.45;;;;;;;;;;4977406;28;20035;-67
2022/05/09 10:26:25;;;;;;;10.73;5.88;;;;;;;;;;4980855;28;20079;-67
2022/05/09 10:28:57;;;;;;;11.40;4.38;;;;;;;;;;4973003;28;20114;-66
2022/05/09 10:31:29;;;;;;;6.32;3.80;;;;;;;;;;4976641;28;20408;-67
2022/05/09 10:34:00;;;;;;;9.18;4.05;;;;;;;;;;4976426;28;20042;-67
2022/05/09 10:36:29;;;;;;;7.47;4.28;;;;;;;;;;4977385;28;20030;-67
2022/05/09 10:39:00;;;;;;;6.55;3.70;;;;;;;;;;4994428;28;20050;-68
2022/05/09 10:41:29;;;;;;;9.48;3.88;;;;;;;;;;4978019;28;20481;-67
2022/05/09 10:44:09;;;;;;;6.28;3.92;;;;;;;;;;4979411;28;20027;-67
2022/05/09 10:46:43;;;;;;;7.32;3.90;;;;;;;;;;4977873;28;20068;-67
2022/05/09 10:49:19;;;;;;;7.63;4.30;;;;;;;;;;4979511;28;20033;-67
2022/05/09 10:51:55;;;;;;;12.45;4.65;;;;;;;;;;4971408;28;20491;-67
2022/05/09 10:54:37;;;;;;;6.72;3.78;;;;;;;;;;4985091;28;20045;-67
2022/05/09 10:57:03;;;;;;;5.20;3.80;;;;;;;;;;4971657;28;20111;-67
2022/05/09 10:59:30;;;;;;;7.82;4.22;;;;;;;;;;4972186;28;20505;-67
2022/05/09 11:01:57;;;;;;;6.97;4.47;;;;;;;;;;4981356;28;20030;-67
2022/05/09 11:04:24;;;;;;;6.55;4.13;;;;;;;;;;4976830;28;20030;-67
2022/05/09 11:07:06;;;;;;;8.23;3.70;;;;;;;;;;4986907;28;20500;-67
2022/05/09 11:09:45;;;;;;;10.15;3.53;;;;;;;;;;4977482;28;20058;-67
2022/05/09 11:12:17;;;;;;;4.45;3.40;;;;;;;;;;4979094;28;20126;-67
2022/05/09 11:14:45;;;;;;;7.60;3.55;;;;;;;;;;4982178;28;20030;-67
2022/05/09 11:17:31;;;;;;;7.80;3.63;;;;;;;;;;4971457;28;20066;-67
2022/05/09 11:20:03;;;;;;;5.93;3.45;;;;;;;;;;4976328;28;20160;-67
2022/05/09 11:22:35;;;;;;;4.47;3.10;;;;;;;;;;4975530;28;20030;-67
2022/05/09 11:25:17;;;;;;;8.85;3.30;;;;;;;;;;4977846;28;20018;-67
2022/05/09 11:27:49;;;;;;;9.50;3.85;;;;;;;;;;4979372;28;20423;-67
2022/05/09 11:30:21;;;;;;;5.75;3.63;;;;;;;;;;4970776;28;20061;-67
2022/05/09 11:32:52;;;;;;;7.85;2.67;;;;;;;;;;4979535;28;20436;-67
2022/05/09 11:35:28;;;;;;;9.55;3.40;;;;;;;;;;4976008;28;20439;-67
2022/05/09 11:37:56;;;;;;;5.68;3.33;;;;;;;;;;4975519;28;20087;-67
2022/05/09 11:40:26;;;;;;;7.47;3.58;;;;;;;;;;4982616;28;20484;-67
2022/05/09 11:45:51;;;;;;;5.85;2.92;;;;;;;;;;4970912;28;20515;-67
2022/05/09 11:48:30;;;;;;;7.00;3.42;;;;;;;;;;4981065;28;20034;-66
2022/05/09 11:51:15;;;;;;;7.95;3.88;;;;;;;;;;4988376;28;20423;-67
2022/05/09 11:53:43;;;;;;;5.68;3.63;;;;;;;;;;5008973;28;20035;-66
2022/05/09 11:56:09;;;;;;;6.68;3.72;;;;;;;;;;4997912;28;20019;-67
2022/05/09 11:58:39;;;;;;;10.45;3.80;;;;;;;;;;5005474;28;20043;-66
2022/05/09 12:01:05;;;;;;;6.20;4.13;;;;;;;;;;4985433;28;20057;-66
2022/05/09 12:03:41;;;;;;;8.73;4.13;;;;;;;;;;5033247;28;20055;-67
2022/05/09 12:06:11;;;;;;;8.40;3.90;;;;;;;;;;4986857;28;20476;-67
2022/05/09 12:08:45;;;;;;;5.85;3.90;;;;;;;;;;5035757;28;20090;-67
2022/05/09 12:11:22;;;;;;;7.22;4.53;;;;;;;;;;4999386;28;20429;-67
2022/05/09 12:13:50;;;;;;;8.77;4.20;;;;;;;;;;4995900;28;20045;-67
2022/05/09 12:16:39;;;;;;;7.68;4.22;;;;;;;;;;5003583;28;20710;-67
2022/05/09 12:19:20;;;;;;;6.13;4.47;;;;;;;;;;5005673;28;20379;-67
2022/05/09 12:22:06;;;;;;;9.80;4.82;;;;;;;;;;5000075;28;20020;-67
2022/05/09 12:24:33;;;;;;;7.38;4.35;;;;;;;;;;5023486;28;20038;-67
2022/05/09 12:27:00;;;;;;;8.38;4.03;;;;;;;;;;4991000;28;20026;-67
2022/05/09 12:29:26;;;;;;;6.88;4.05;;;;;;;;;;5041457;28;20029;-67
2022/05/09 12:31:57;;;;;;;8.00;3.97;;;;;;;;;;4981293;28;20038;-67
2022/05/09 12:34:39;;;;;;;11.10;3.95;;;;;;;;;;4996723;28;20200;-66
2022/05/09 12:37:05;;;;;;;4.82;3.22;;;;;;;;;;4984795;28;20116;-67
2022/05/09 12:39:32;;;;;;;7.28;3.58;;;;;;;;;;4980789;28;20034;-67
2022/05/09 12:41:59;;;;;;;7.40;3.85;;;;;;;;;;4977963;28;20034;-67
2022/05/09 12:44:31;;;;;;;7.00;3.75;;;;;;;;;;4983260;28;20533;-67
2022/05/09 12:47:00;;;;;;;7.90;4.55;;;;;;;;;;4976614;28;20121;-67
2022/05/09 12:49:33;;;;;;;8.55;3.88;;;;;;;;;;4979323;28;20019;-67
2022/05/09 12:51:59;;;;;;;10.02;4.00;;;;;;;;;;4979566;28;20065;-67
2022/05/09 12:54:28;;;;;;;7.13;3.67;;;;;;;;;;4985593;28;20026;-67
2022/05/09 12:56:55;;;;;;;5.03;3.67;;;;;;;;;;4984448;28;20496;-67
2022/05/09 12:59:21;;;;;;;5.15;3.70;;;;;;;;;;4986235;28;20062;-67
2022/05/09 13:02:05;;;;;;;5.63;3.30;;;;;;;;;;4972873;28;20031;-67
2022/05/09 13:04:33;;;;;;;7.18;3.20;;;;;;;;;;4979283;28;20030;-67
2022/05/09 13:07:04;;;;;;;10.00;3.30;;;;;;;;;;4979980;28;20031;-67
2022/05/09 13:09:36;;;;;;;5.70;2.90;;;;;;;;;;4984065;28;20145;-67
2022/05/09 13:12:11;;;;;;;4.53;3.33;;;;;;;;;;4975051;28;20394;-67
2022/05/09 13:14:39;;;;;;;7.70;3.13;;;;;;;;;;4979808;28;20043;-67
2022/05/09 13:17:11;;;;;;;8.95;4.00;;;;;;;;;;4981613;28;20027;-67
2022/05/09 13:19:37;;;;;;;;;;;;;;;;;;4977316;28;20039;-66
2022/05/09 13:22:04;;;;;;;7.18;3.00;;;;;;;;;;4978968;28;19914;-65
2022/05/09 13:24:31;;;;;;;7.05;3.30;;;;;;;;;;4982883;28;20023;-65
2022/05/09 13:26:58;;;;;;;6.10;2.90;;;;;;;;;;4989016;28;20116;-64
2022/05/09 13:29:26;;;;;;;5.90;2.90;;;;;;;;;;4988091;28;20113;-65
2022/05/09 13:31:55;;;;;;;6.05;2.83;;;;;;;;;;4979319;28;20362;-65
2022/05/09 13:34:23;;;;;;;5.03;3.20;;;;;;;;;;4981838;28;20539;-65
2022/05/09 13:36:52;;;;;;;11.27;3.80;;;;;;;;;;4988256;28;20030;-65
2022/05/09 13:39:23;;;;;;;6.97;3.30;;;;;;;;;;4980236;28;20499;-65
2022/05/09 13:41:49;;;;;;;7.32;3.40;;;;;;;;;;4974527;28;20084;-65
2022/05/09 13:44:19;;;;;;;7.05;3.58;;;;;;;;;;4972207;28;20022;-65
2022/05/09 13:46:47;;;;;;;6.20;2.80;;;;;;;;;;4983543;28;20053;-65
2022/05/09 13:49:14;;;;;;;7.00;2.80;;;;;;;;;;4990243;28;20460;-65
2022/05/09 13:51:43;;;;;;;9.32;3.00;;;;;;;;;;4975231;28;20428;-65
2022/05/09 13:54:10;;;;;;;5.97;3.10;;;;;;;;;;4977804;28;20052;-65
2022/05/09 13:56:38;;;;;;;7.30;3.13;;;;;;;;;;4983576;28;20075;-65
2022/05/09 13:59:05;;;;;;;5.55;2.83;;;;;;;;;;4980126;28;20364;-65
2022/05/09 14:01:39;;;;;;;8.40;3.15;;;;;;;;;;4979879;28;20454;-65
2022/05/09 14:04:06;;;;;;;7.60;2.72;;;;;;;;;;4977263;28;20038;-65
2022/05/09 14:06:35;;;;;;;6.95;3.38;;;;;;;;;;4984407;28;20031;-65
2022/05/09 14:09:05;;;;;;;7.78;3.03;;;;;;;;;;4977872;28;20047;-64
2022/05/09 14:11:33;;;;;;;3.63;2.63;;;;;;;;;;4977706;28;20037;-65
2022/05/09 14:14:01;;;;;;;4.68;2.65;;;;;;;;;;4981706;28;20026;-65
2022/05/09 14:16:37;;;;;;;7.25;3.20;;;;;;;;;;4978325;28;20046;-65
2022/05/09 14:19:06;;;;;;;7.75;2.90;;;;;;;;;;4979858;28;20507;-65
2022/05/09 14:21:43;;;;;;;6.03;2.78;;;;;;;;;;4975330;28;20039;-64
2022/05/09 14:24:11;;;;;;;7.22;3.10;;;;;;;;;;4983729;28;20045;-65
2022/05/09 14:29:38;;;;;;;4.45;3.05;;;;;;;;;;4984619;28;20122;-65
2022/05/09 14:32:11;;;;;;;3.50;2.58;;;;;;;;;;4982426;28;20030;-65
2022/05/09 14:34:38;;;;;;;7.93;2.63;;;;;;;;;;4973864;28;20088;-65
2022/05/09 14:37:22;;;;;;;3.88;2.90;;;;;;;;;;4973689;28;20531;-65
2022/05/09 14:39:58;;;;;;;7.03;3.33;;;;;;;;;;4976821;28;20054;-65
2022/05/09 14:42:24;;;;;;;7.78;3.10;;;;;;;;;;4975213;28;20066;-65
2022/05/09 14:45:03;;;;;;;7.63;3.25;;;;;;;;;;4973890;28;20041;-65
2022/05/09 14:47:41;;;;;;;9.65;2.75;;;;;;;;;;4977628;28;20031;-65
2022/05/09 14:50:17;;;;;;;4.38;3.25;;;;;;;;;;4980884;28;20099;-65
2022/05/09 14:52:43;;;;;;;4.35;3.03;;;;;;;;;;4981697;28;20043;-65